Time;durP1;ratioP1;P1;durP2;ratioP2;P2;SDS_P1;SDS_P2;PMS_P1;PMS_P2;Temp;Humidity;BMP_temperature;BMP_pressure;BME280_temperature;BME280_humidity;BME280_pressure;Samples;Min_cycle;Max_cycle;Signal;HPM_P1;HPM_P2
2023/01/03 00:00:07;;;;;;;;;;;;;;;;;;1047491;28;1776;-50
2023/01/03 00:00:57;;;;;;;;;;;;;;;;;;1046009;28;3808;-55
2023/01/03 00:01:37;;;;;;;;;;;;;;;;;;1043646;28;3841;-55
2023/01/03 00:02:08;;;;;;;;;;;;;;;;;;1044956;28;2637;-54
2023/01/03 00:02:38;;;;;;;;;;;;;;;;;;1046905;28;4025;-56
2023/01/03 00:03:08;;;;;;;;;;;;;;;;;;1050076;28;1831;-52
2023/01/03 00:03:38;;;;;;;;;;;;;;;;;;1041454;28;3795;-53
2023/01/03 00:04:09;;;;;;;;;;;;;;;;;;1044307;28;1821;-54
2023/01/03 00:04:39;;;;;;;;;;;;;;;;;;1041437;28;4029;-53
2023/01/03 00:05:09;;;;;;;;;;;;;;;;;;1044099;28;2674;-56
2023/01/03 00:05:41;;;;;;;;;;;;;;;;;;1047829;28;3964;-54
2023/01/03 00:06:20;;;;;;;;;;;;;;;;;;1047097;28;2086;-51
2023/01/03 00:06:51;;;;;;;;;;;;;;;;;;1045870;28;4073;-53
2023/01/03 00:07:32;;;;;;;;;;;;;;;;;;1049402;28;1669;-54
2023/01/03 00:08:02;;;;;;;;;;;;;;;;;;1047020;28;4988;-51
2023/01/03 00:08:33;;;;;;;;;;;;;;;;;;1050709;28;2521;-56
2023/01/03 00:09:04;;;;;;;;;;;;;;;;;;1046323;28;3861;-52
2023/01/03 00:09:35;;;;;;;;;;;;;;;;;;1047211;28;4038;-54
2023/01/03 00:10:09;;;;;;;;;;;;;;;;;;1042359;28;1666;-53
2023/01/03 00:10:39;;;;;;;;;;;;;;;;;;1040180;28;4131;-52
2023/01/03 00:11:13;;;;;;;;;;;;;;;;;;1046576;28;2133;-52
2023/01/03 00:12:34;;;;;;;;;;;;;;;;;;1048779;28;2461;-53
2023/01/03 00:13:04;;;;;;;;;;;;;;;;;;1047786;28;3596;-50
2023/01/03 00:13:35;;;;;;;;;;;;;;;;;;1049235;28;3938;-52
2023/01/03 00:14:05;;;;;;;;;;;;;;;;;;1049424;28;2655;-55
2023/01/03 00:14:37;;;;;;;;;;;;;;;;;;1049173;28;4029;-54
2023/01/03 00:15:08;;;;;;;;;;;;;;;;;;1051001;28;2090;-51
2023/01/03 00:15:38;;;;;;;;;;;;;;;;;;1049542;28;4074;-51
2023/01/03 00:16:15;;;;;;;;;;;;;;;;;;1047894;28;2004;-55
2023/01/03 00:16:48;;;;;;;;;;;;;;;;;;1046651;28;4017;-55
2023/01/03 00:17:19;;;;;;;;;;;;;;;;;;1046703;28;2122;-56
2023/01/03 00:17:50;;;;;;;;;;;;;;;;;;1046736;28;3997;-54
2023/01/03 00:18:20;;;;;;;;;;;;;;;;;;1046018;28;1986;-50
2023/01/03 00:18:51;;;;;;;;;;;;;;;;;;1041966;28;3848;-52
2023/01/03 00:19:22;;;;;;;;;;;;;;;;;;1044532;28;2032;-53
2023/01/03 00:19:52;;;;;;;;;;;;;;;;;;1042055;28;4078;-55
2023/01/03 00:20:23;;;;;;;;;;;;;;;;;;1046641;28;2989;-53
2023/01/03 00:20:53;;;;;;;;;;;;;;;;;;1048759;28;4154;-55
2023/01/03 00:21:23;;;;;;;;;;;;;;;;;;1051273;28;1661;-50
2023/01/03 00:21:54;;;;;;;;;;;;;;;;;;1048524;28;4337;-52
2023/01/03 00:22:38;;;;;;;;;;;;;;;;;;1047453;28;2180;-55
2023/01/03 00:23:15;;;;;;;;;;;;;;;;;;1050009;28;3888;-54
2023/01/03 00:23:45;;;;;;;;;;;;;;;;;;1049904;28;3760;-52
2023/01/03 00:24:15;;;;;;;;;;;;;;;;;;1047872;28;1754;-52
2023/01/03 00:24:47;;;;;;;;;;;;;;;;;;1048207;28;3778;-53
2023/01/03 00:25:17;;;;;;;;;;;;;;;;;;1047477;28;2012;-53
2023/01/03 00:25:47;;;;;;;;;;;;;;;;;;1046783;28;4025;-55
2023/01/03 00:26:18;;;;;;;;;;;;;;;;;;1046640;28;2159;-53
2023/01/03 00:26:49;;;;;;;;;;;;;;;;;;1047792;28;3776;-52
2023/01/03 00:27:20;;;;;;;;;;;;;;;;;;1050181;28;1701;-53
2023/01/03 00:27:50;;;;;;;;;;;;;;;;;;1049879;28;4064;-51
2023/01/03 00:28:20;;;;;;;;;;;;;;;;;;1046495;28;2752;-56
2023/01/03 00:28:50;;;;;;;;;;;;;;;;;;1049694;28;3853;-53
2023/01/03 00:29:20;;;;;;;;;;;;;;;;;;1046363;28;2941;-52
2023/01/03 00:29:51;;;;;;;;;;;;;;;;;;1046877;28;4020;-51
2023/01/03 00:30:21;;;;;;;;;;;;;;;;;;1046579;28;1840;-54
2023/01/03 00:30:52;;;;;;;;;;;;;;;;;;1045915;28;3915;-54
2023/01/03 00:31:22;;;;;;;;;;;;;;;;;;1043998;28;2830;-53
2023/01/03 00:31:52;;;;;;;;;;;;;;;;;;1045777;28;3859;-50
2023/01/03 00:32:22;;;;;;;;;;;;;;;;;;1040825;28;2465;-53
2023/01/03 00:32:53;;;;;;;;;;;;;;;;;;1042388;28;3868;-56
2023/01/03 00:33:23;;;;;;;;;;;;;;;;;;1040098;28;2761;-54
2023/01/03 00:33:53;;;;;;;;;;;;;;;;;;1040714;28;3779;-51
2023/01/03 00:34:23;;;;;;;;;;;;;;;;;;1044584;28;2860;-52
2023/01/03 00:34:54;;;;;;;;;;;;;;;;;;1046355;28;4351;-52
2023/01/03 00:35:24;;;;;;;;;;;;;;;;;;1050994;28;1758;-53
2023/01/03 00:35:54;;;;;;;;;;;;;;;;;;1049001;28;4009;-53
2023/01/03 00:36:24;;;;;;;;;;;;;;;;;;1042785;28;2824;-52
2023/01/03 00:36:55;;;;;;;;;;;;;;;;;;1043422;28;4366;-53
2023/01/03 00:37:25;;;;;;;;;;;;;;;;;;1043088;28;2954;-54
2023/01/03 00:37:55;;;;;;;;;;;;;;;;;;1045103;28;3997;-56
2023/01/03 00:38:25;;;;;;;;;;;;;;;;;;1049749;28;2040;-51
2023/01/03 00:38:56;;;;;;;;;;;;;;;;;;1046107;28;3931;-54
2023/01/03 00:39:26;;;;;;;;;;;;;;;;;;1048915;28;2750;-50
2023/01/03 00:39:56;;;;;;;;;;;;;;;;;;1046814;28;4247;-49
2023/01/03 00:40:27;;;;;;;;;;;;;;;;;;1047532;28;2166;-54
2023/01/03 00:41:10;;;;;;;;;;;;;;;;;;1043814;28;3884;-55
2023/01/03 00:41:41;;;;;;;;;;;;;;;;;;1044698;28;4447;-52
2023/01/03 00:42:11;;;;;;;;;;;;;;;;;;1043279;28;3064;-56
2023/01/03 00:43:30;;;;;;;;;;;;;;;;;;1047216;28;1457;-52
2023/01/03 00:44:01;;;;;;;;;;;;;;;;;;1047157;28;3864;-52
2023/01/03 00:44:32;;;;;;;;;;;;;;;;;;1047266;28;1784;-51
2023/01/03 00:45:02;;;;;;;;;;;;;;;;;;1046757;28;4330;-52
2023/01/03 00:45:39;;;;;;;;;;;;;;;;;;1047669;28;4699;-54
2023/01/03 00:46:10;;;;;;;;;;;;;;;;;;1046466;28;3095;-51
2023/01/03 00:46:40;;;;;;;;;;;;;;;;;;1046947;28;3840;-52
2023/01/03 00:47:11;;;;;;;;;;;;;;;;;;1047333;28;2036;-53
2023/01/03 00:47:41;;;;;;;;;;;;;;;;;;1047418;28;4466;-54
2023/01/03 00:48:11;;;;;;;;;;;;;;;;;;1047926;28;2016;-54
2023/01/03 00:48:42;;;;;;;;;;;;;;;;;;1048826;28;4131;-50
2023/01/03 00:49:12;;;;;;;;;;;;;;;;;;1047717;28;2538;-57
2023/01/03 00:49:42;;;;;;;;;;;;;;;;;;1049741;28;4057;-50
2023/01/03 00:50:12;;;;;;;;;;;;;;;;;;1049208;28;1779;-54
2023/01/03 00:50:43;;;;;;;;;;;;;;;;;;1049522;28;4005;-53
2023/01/03 00:51:17;;;;;;;;;;;;;;;;;;1047663;28;2724;-53
2023/01/03 00:51:48;;;;;;;;;;;;;;;;;;1049529;28;3992;-51
2023/01/03 00:52:18;;;;;;;;;;;;;;;;;;1048396;28;2323;-52
2023/01/03 00:52:48;;;;;;;;;;;;;;;;;;1047462;28;4548;-50
2023/01/03 00:53:19;;;;;;;;;;;;;;;;;;1048546;28;1841;-52
2023/01/03 00:53:50;;;;;;;;;;;;;;;;;;1047664;28;4488;-50
2023/01/03 00:54:21;;;;;;;;;;;;;;;;;;1049990;28;1725;-49
2023/01/03 00:54:51;;;;;;;;;;;;;;;;;;1043127;28;4437;-52
2023/01/03 00:55:21;;;;;;;;;;;;;;;;;;1043278;28;2123;-51
2023/01/03 00:55:52;;;;;;;;;;;;;;;;;;1043777;28;3773;-55
2023/01/03 00:56:23;;;;;;;;;;;;;;;;;;1046548;28;2468;-53
2023/01/03 00:56:54;;;;;;;;;;;;;;;;;;1047507;28;4041;-51
2023/01/03 00:57:24;;;;;;;;;;;;;;;;;;1047117;28;2826;-50
2023/01/03 00:57:54;;;;;;;;;;;;;;;;;;1048256;28;4377;-52
2023/01/03 00:58:25;;;;;;;;;;;;;;;;;;1047447;28;2790;-55
2023/01/03 00:58:55;;;;;;;;;;;;;;;;;;1050407;28;4021;-54
2023/01/03 00:59:26;;;;;;;;;;;;;;;;;;1043691;28;2840;-52
2023/01/03 00:59:56;;;;;;;;;;;;;;;;;;1044016;28;3926;-52
2023/01/03 01:00:26;;;;;;;;;;;;;;;;;;1043722;28;1834;-50
2023/01/03 01:01:02;;;;;;;;;;;;;;;;;;1042432;28;3999;-49
2023/01/03 01:01:34;;;;;;;;;;;;;;;;;;1047782;28;2485;-55
2023/01/03 01:02:04;;;;;;;;;;;;;;;;;;1049656;28;3915;-56
2023/01/03 01:02:34;;;;;;;;;;;;;;;;;;1052285;28;2201;-52
2023/01/03 01:03:05;;;;;;;;;;;;;;;;;;1047647;28;3721;-53
2023/01/03 01:03:36;;;;;;;;;;;;;;;;;;1048732;28;3924;-53
2023/01/03 01:04:08;;;;;;;;;;;;;;;;;;1051379;28;2022;-54
2023/01/03 01:04:39;;;;;;;;;;;;;;;;;;1049848;28;3861;-53
2023/01/03 01:05:16;;;;;;;;;;;;;;;;;;1042656;28;1998;-52
2023/01/03 01:05:46;;;;;;;;;;;;;;;;;;1044603;28;3772;-51
2023/01/03 01:06:19;;;;;;;;;;;;;;;;;;1044451;28;2031;-52
2023/01/03 01:06:51;;;;;;;;;;;;;;;;;;1047993;28;4433;-50
2023/01/03 01:07:21;;;;;;;;;;;;;;;;;;1046923;28;2127;-53
2023/01/03 01:07:52;;;;;;;;;;;;;;;;;;1045395;28;3773;-52
2023/01/03 01:08:22;;;;;;;;;;;;;;;;;;1045871;28;1936;-54
2023/01/03 01:08:54;;;;;;;;;;;;;;;;;;1045403;28;3775;-52
2023/01/03 01:09:26;;;;;;;;;;;;;;;;;;1051008;28;1790;-55
2023/01/03 01:09:57;;;;;;;;;;;;;;;;;;1050194;28;4171;-52
2023/01/03 01:10:27;;;;;;;;;;;;;;;;;;1051621;28;1900;-53
2023/01/03 01:11:03;;;;;;;;;;;;;;;;;;1049413;28;4011;-53
2023/01/03 01:11:33;;;;;;;;;;;;;;;;;;1046822;28;2522;-53
2023/01/03 01:12:05;;;;;;;;;;;;;;;;;;1050604;28;3930;-52
2023/01/03 01:12:35;;;;;;;;;;;;;;;;;;1046644;28;3839;-53
2023/01/03 01:13:06;;;;;;;;;;;;;;;;;;1048129;28;2895;-52
2023/01/03 01:13:36;;;;;;;;;;;;;;;;;;1049228;28;4211;-54
2023/01/03 01:14:18;;;;;;;;;;;;;;;;;;1048004;28;1716;-55
2023/01/03 01:14:48;;;;;;;;;;;;;;;;;;1045588;28;4013;-50
2023/01/03 01:15:19;;;;;;;;;;;;;;;;;;1045343;28;2748;-53
2023/01/03 01:15:49;;;;;;;;;;;;;;;;;;1045168;28;3736;-52
2023/01/03 01:16:21;;;;;;;;;;;;;;;;;;1047780;28;2007;-52
2023/01/03 01:16:56;;;;;;;;;;;;;;;;;;1048927;28;4239;-52
2023/01/03 01:17:33;;;;;;;;;;;;;;;;;;1047266;28;2128;-54
2023/01/03 01:18:10;;;;;;;;;;;;;;;;;;1049167;28;4716;-53
2023/01/03 01:18:41;;;;;;;;;;;;;;;;;;1047709;28;3957;-52
2023/01/03 01:19:11;;;;;;;;;;;;;;;;;;1047236;28;2119;-54
2023/01/03 01:19:42;;;;;;;;;;;;;;;;;;1047147;28;3941;-53
2023/01/03 01:20:13;;;;;;;;;;;;;;;;;;1048828;28;2984;-53
2023/01/03 01:20:43;;;;;;;;;;;;;;;;;;1050480;28;3783;-52
2023/01/03 01:21:16;;;;;;;;;;;;;;;;;;1050850;28;2847;-57
2023/01/03 01:21:46;;;;;;;;;;;;;;;;;;1051363;28;4363;-54
2023/01/03 01:22:17;;;;;;;;;;;;;;;;;;1048478;28;1372;-53
2023/01/03 01:23:01;;;;;;;;;;;;;;;;;;1050439;28;4022;-53
2023/01/03 01:23:39;;;;;;;;;;;;;;;;;;1049044;28;2845;-52
2023/01/03 01:24:09;;;;;;;;;;;;;;;;;;1048707;28;3885;-53
2023/01/03 01:24:39;;;;;;;;;;;;;;;;;;1050653;28;3935;-50
2023/01/03 01:25:10;;;;;;;;;;;;;;;;;;1050212;28;2157;-53
2023/01/03 01:25:40;;;;;;;;;;;;;;;;;;1046574;28;4054;-53
2023/01/03 01:26:13;;;;;;;;;;;;;;;;;;1048052;28;1787;-52
2023/01/03 01:26:44;;;;;;;;;;;;;;;;;;1047530;28;4432;-53
2023/01/03 01:27:14;;;;;;;;;;;;;;;;;;1048953;28;2484;-51
2023/01/03 01:27:44;;;;;;;;;;;;;;;;;;1049137;28;4237;-48
2023/01/03 01:28:15;;;;;;;;;;;;;;;;;;1052222;28;1932;-51
2023/01/03 01:28:45;;;;;;;;;;;;;;;;;;1050530;28;3966;-50
2023/01/03 01:29:16;;;;;;;;;;;;;;;;;;1050959;28;1796;-52
2023/01/03 01:29:46;;;;;;;;;;;;;;;;;;1048325;28;3893;-53
2023/01/03 01:30:16;;;;;;;;;;;;;;;;;;1051778;28;1900;-50
2023/01/03 01:30:47;;;;;;;;;;;;;;;;;;1050454;28;3845;-53
2023/01/03 01:31:19;;;;;;;;;;;;;;;;;;1051884;28;1610;-52
2023/01/03 01:31:49;;;;;;;;;;;;;;;;;;1049494;28;3766;-55
2023/01/03 01:32:19;;;;;;;;;;;;;;;;;;1050276;28;2955;-54
2023/01/03 01:32:49;;;;;;;;;;;;;;;;;;1048225;28;3793;-55
2023/01/03 01:33:20;;;;;;;;;;;;;;;;;;1049328;28;2793;-55
2023/01/03 01:33:51;;;;;;;;;;;;;;;;;;1047345;28;3861;-54
2023/01/03 01:34:21;;;;;;;;;;;;;;;;;;1048989;28;3015;-51
2023/01/03 01:34:51;;;;;;;;;;;;;;;;;;1048494;28;3942;-51
2023/01/03 01:35:22;;;;;;;;;;;;;;;;;;1047582;28;1725;-50
2023/01/03 01:35:52;;;;;;;;;;;;;;;;;;1050015;28;4927;-53
2023/01/03 01:36:24;;;;;;;;;;;;;;;;;;1051303;28;1841;-52
2023/01/03 01:36:54;;;;;;;;;;;;;;;;;;1051608;28;3834;-49
2023/01/03 01:37:25;;;;;;;;;;;;;;;;;;1050790;28;2752;-56
2023/01/03 01:37:55;;;;;;;;;;;;;;;;;;1047443;28;4056;-52
2023/01/03 01:38:26;;;;;;;;;;;;;;;;;;1042734;28;1921;-55
2023/01/03 01:38:57;;;;;;;;;;;;;;;;;;1044052;28;4233;-54
2023/01/03 01:39:28;;;;;;;;;;;;;;;;;;1045517;28;2676;-53
2023/01/03 01:39:58;;;;;;;;;;;;;;;;;;1043148;28;3929;-55
2023/01/03 01:40:30;;;;;;;;;;;;;;;;;;1047292;28;1728;-54
2023/01/03 01:41:00;;;;;;;;;;;;;;;;;;1047381;28;3826;-53
2023/01/03 01:44:56;;;;;;;;;;;;;;;;;;1050732;28;3777;-55
2023/01/03 01:45:26;;;;;;;;;;;;;;;;;;1051289;28;1763;-54
2023/01/03 01:45:57;;;;;;;;;;;;;;;;;;1045359;28;4046;-51
2023/01/03 01:46:30;;;;;;;;;;;;;;;;;;1046734;28;2906;-51
2023/01/03 01:47:01;;;;;;;;;;;;;;;;;;1045369;28;3998;-53
2023/01/03 01:47:31;;;;;;;;;;;;;;;;;;1046091;28;2810;-53
2023/01/03 01:48:05;;;;;;;;;;;;;;;;;;1051209;28;3900;-55
2023/01/03 01:48:35;;;;;;;;;;;;;;;;;;1050827;28;3999;-51
2023/01/03 01:49:10;;;;;;;;;;;;;;;;;;1050322;28;2956;-51
2023/01/03 01:49:41;;;;;;;;;;;;;;;;;;1047857;28;3923;-54
2023/01/03 01:50:23;;;;;;;;;;;;;;;;;;1051744;28;1786;-55
2023/01/03 01:50:54;;;;;;;;;;;;;;;;;;1051001;28;3998;-53
2023/01/03 01:51:26;;;;;;;;;;;;;;;;;;1049914;28;1777;-54
2023/01/03 01:52:03;;;;;;;;;;;;;;;;;;1046737;28;3705;-53
2023/01/03 01:52:35;;;;;;;;;;;;;;;;;;1050517;28;1721;-52
2023/01/03 01:53:05;;;;;;;;;;;;;;;;;;1048865;28;3794;-50
2023/01/03 01:53:37;;;;;;;;;;;;;;;;;;1047174;28;3775;-53
2023/01/03 01:54:08;;;;;;;;;;;;;;;;;;1043107;28;2143;-50
2023/01/03 01:54:40;;;;;;;;;;;;;;;;;;1044378;28;4250;-51
2023/01/03 01:55:12;;;;;;;;;;;;;;;;;;1038966;28;1617;-55
2023/01/03 01:55:47;;;;;;;;;;;;;;;;;;1039251;28;4097;-53
2023/01/03 01:56:21;;;;;;;;;;;;;;;;;;1046605;28;1703;-54
2023/01/03 01:56:52;;;;;;;;;;;;;;;;;;1046312;28;3926;-51
2023/01/03 01:57:23;;;;;;;;;;;;;;;;;;1049239;28;1638;-52
2023/01/03 01:57:53;;;;;;;;;;;;;;;;;;1048550;28;4200;-51
2023/01/03 01:58:26;;;;;;;;;;;;;;;;;;1049836;28;2805;-51
2023/01/03 01:58:56;;;;;;;;;;;;;;;;;;1048988;28;3788;-51
2023/01/03 01:59:27;;;;;;;;;;;;;;;;;;1047400;28;1685;-53
2023/01/03 01:59:58;;;;;;;;;;;;;;;;;;1046755;28;3711;-52
2023/01/03 02:00:28;;;;;;;;;;;;;;;;;;1050307;28;2707;-53
2023/01/03 02:00:59;;;;;;;;;;;;;;;;;;1047197;28;3884;-49
2023/01/03 02:01:29;;;;;;;;;;;;;;;;;;1043487;28;1902;-51
2023/01/03 02:02:00;;;;;;;;;;;;;;;;;;1041994;28;3859;-54
2023/01/03 02:02:30;;;;;;;;;;;;;;;;;;1042853;28;4052;-53
2023/01/03 02:03:00;;;;;;;;;;;;;;;;;;1042234;28;3899;-50
2023/01/03 02:03:31;;;;;;;;;;;;;;;;;;1042956;28;1697;-52
2023/01/03 02:04:24;;;;;;;;;;;;;;;;;;1044969;28;3952;-49
2023/01/03 02:04:55;;;;;;;;;;;;;;;;;;1040164;28;3763;-54
2023/01/03 02:05:25;;;;;;;;;;;;;;;;;;1046820;28;1686;-51
2023/01/03 02:05:57;;;;;;;;;;;;;;;;;;1047346;28;3870;-54
2023/01/03 02:06:28;;;;;;;;;;;;;;;;;;1047621;28;1877;-54
2023/01/03 02:06:58;;;;;;;;;;;;;;;;;;1050532;28;3897;-51
2023/01/03 02:07:28;;;;;;;;;;;;;;;;;;1051315;28;1672;-49
2023/01/03 02:07:59;;;;;;;;;;;;;;;;;;1049124;28;3748;-53
2023/01/03 02:08:29;;;;;;;;;;;;;;;;;;1047808;28;2480;-51
2023/01/03 02:08:59;;;;;;;;;;;;;;;;;;1050108;28;4364;-50
2023/01/03 02:09:33;;;;;;;;;;;;;;;;;;1050325;28;2095;-53
2023/01/03 02:10:03;;;;;;;;;;;;;;;;;;1051565;28;3890;-53
2023/01/03 02:10:50;;;;;;;;;;;;;;;;;;1046828;28;1995;-52
2023/01/03 02:11:20;;;;;;;;;;;;;;;;;;1044689;28;4046;-53
2023/01/03 02:13:05;;;;;;;;;;;;;;;;;;1048029;28;4364;-53
2023/01/03 02:13:38;;;;;;;;;;;;;;;;;;1049856;28;4058;-52
2023/01/03 02:14:21;;;;;;;;;;;;;;;;;;1050210;28;2836;-57
2023/01/03 02:14:51;;;;;;;;;;;;;;;;;;1050160;28;3765;-54
2023/01/03 02:15:21;;;;;;;;;;;;;;;;;;1045998;28;1871;-49
2023/01/03 02:16:11;;;;;;;;;;;;;;;;;;1039091;28;3958;-53
2023/01/03 02:17:01;;;;;;;;;;;;;;;;;;1038187;28;3771;-52
2023/01/03 02:17:42;;;;;;;;;;;;;;;;;;1045579;28;3594;-49
2023/01/03 02:18:23;;;;;;;;;;;;;;;;;;1048022;28;3850;-53
2023/01/03 02:19:12;;;;;;;;;;;;;;;;;;1047061;28;4441;-52
2023/01/03 02:20:00;;;;;;;;;;;;;;;;;;1047575;28;4428;-48
2023/01/03 02:20:39;;;;;;;;;;;;;;;;;;1051849;28;3020;-51
2023/01/03 02:21:25;;;;;;;;;;;;;;;;;;1046129;28;5113;-54
2023/01/03 02:22:17;;;;;;;;;;;;;;;;;;1049575;28;3920;-54
2023/01/03 02:22:59;;;;;;;;;;;;;;;;;;1050981;28;3754;-55
2023/01/03 02:23:33;;;;;;;;;;;;;;;;;;1049817;28;1959;-54
2023/01/03 02:24:05;;;;;;;;;;;;;;;;;;1048147;28;3881;-54
2023/01/03 02:24:51;;;;;;;;;;;;;;;;;;1047008;28;4371;-51
2023/01/03 02:25:40;;;;;;;;;;;;;;;;;;1048787;28;1998;-54
2023/01/03 02:26:21;;;;;;;;;;;;;;;;;;1051126;28;3819;-54
2023/01/03 02:27:14;;;;;;;;;;;;;;;;;;1049197;28;3822;-53
2023/01/03 02:27:57;;;;;;;;;;;;;;;;;;1037948;28;3955;-54
2023/01/03 02:28:45;;;;;;;;;;;;;;;;;;1049125;28;1870;-52
2023/01/03 02:29:34;;;;;;;;;;;;;;;;;;1048931;28;3944;-49
2023/01/03 02:30:27;;;;;;;;;;;;;;;;;;1049380;28;3894;-51
2023/01/03 02:31:06;;;;;;;;;;;;;;;;;;1046734;28;4035;-54
2023/01/03 02:31:47;;;;;;;;;;;;;;;;;;1046960;28;3872;-54
2023/01/03 02:32:17;;;;;;;;;;;;;;;;;;1050052;28;2793;-53
2023/01/03 02:32:50;;;;;;;;;;;;;;;;;;1049457;28;3937;-52
2023/01/03 02:33:39;;;;;;;;;;;;;;;;;;1048901;28;2841;-52
2023/01/03 02:34:25;;;;;;;;;;;;;;;;;;1048118;28;3801;-57
2023/01/03 02:35:05;;;;;;;;;;;;;;;;;;1047178;28;3871;-53
2023/01/03 02:35:39;;;;;;;;;;;;;;;;;;1049898;28;2888;-54
2023/01/03 02:36:26;;;;;;;;;;;;;;;;;;1047778;28;3956;-51
2023/01/03 02:37:06;;;;;;;;;;;;;;;;;;1048103;28;3742;-53
2023/01/03 02:37:40;;;;;;;;;;;;;;;;;;1046588;28;3882;-52
2023/01/03 02:38:13;;;;;;;;;;;;;;;;;;1047156;28;2844;-53
2023/01/03 02:38:49;;;;;;;;;;;;;;;;;;1049368;28;4102;-50
2023/01/03 02:39:26;;;;;;;;;;;;;;;;;;1048506;28;2735;-56
2023/01/03 02:39:59;;;;;;;;;;;;;;;;;;1051549;28;4325;-55
2023/01/03 02:40:35;;;;;;;;;;;;;;;;;;1049250;28;2236;-50
2023/01/03 02:41:08;;;;;;;;;;;;;;;;;;1048569;28;3688;-50
2023/01/03 02:41:47;;;;;;;;;;;;;;;;;;1048473;28;4238;-53
2023/01/03 02:43:14;;;;;;;;;;;;;;;;;;1049599;28;5050;-51
2023/01/03 02:43:52;;;;;;;;;;;;;;;;;;1048547;28;4196;-50
2023/01/03 02:44:25;;;;;;;;;;;;;;;;;;1047272;28;2512;-53
2023/01/03 02:45:05;;;;;;;;;;;;;;;;;;1046514;28;4430;-53
2023/01/03 02:45:45;;;;;;;;;;;;;;;;;;1050203;28;3989;-51
2023/01/03 02:46:21;;;;;;;;;;;;;;;;;;1051647;28;1769;-55
2023/01/03 02:46:59;;;;;;;;;;;;;;;;;;1050883;28;4075;-56
2023/01/03 02:47:34;;;;;;;;;;;;;;;;;;1050928;28;2065;-51
2023/01/03 02:48:11;;;;;;;;;;;;;;;;;;1047817;28;3931;-54
2023/01/03 02:48:47;;;;;;;;;;;;;;;;;;1047061;28;4267;-53
2023/01/03 02:49:23;;;;;;;;;;;;;;;;;;1049304;28;2919;-52
2023/01/03 02:49:57;;;;;;;;;;;;;;;;;;1047312;28;3785;-52
2023/01/03 02:50:28;;;;;;;;;;;;;;;;;;1049138;28;2517;-54
2023/01/03 02:51:01;;;;;;;;;;;;;;;;;;1049730;28;3775;-50
2023/01/03 02:51:36;;;;;;;;;;;;;;;;;;1047657;28;2745;-52
2023/01/03 02:52:10;;;;;;;;;;;;;;;;;;1048960;28;3835;-52
2023/01/03 02:52:41;;;;;;;;;;;;;;;;;;1048330;28;4385;-54
2023/01/03 02:53:13;;;;;;;;;;;;;;;;;;1048717;28;2132;-52
2023/01/03 02:53:45;;;;;;;;;;;;;;;;;;1046859;28;3782;-51
2023/01/03 02:54:39;;;;;;;;;;;;;;;;;;1048117;28;2038;-49
2023/01/03 02:55:15;;;;;;;;;;;;;;;;;;1043552;28;3976;-55
2023/01/03 02:55:48;;;;;;;;;;;;;;;;;;1048376;28;3949;-52
2023/01/03 02:56:25;;;;;;;;;;;;;;;;;;1047084;28;1769;-53
2023/01/03 02:57:15;;;;;;;;;;;;;;;;;;1046890;28;3751;-54
2023/01/03 02:57:55;;;;;;;;;;;;;;;;;;1049025;28;4116;-52
2023/01/03 02:58:27;;;;;;;;;;;;;;;;;;1047798;28;1748;-53
2023/01/03 02:58:59;;;;;;;;;;;;;;;;;;1048533;28;4045;-53
2023/01/03 02:59:38;;;;;;;;;;;;;;;;;;1048632;28;1578;-50
2023/01/03 03:00:11;;;;;;;;;;;;;;;;;;1048435;28;3963;-51
2023/01/03 03:00:44;;;;;;;;;;;;;;;;;;1049429;28;4051;-50
2023/01/03 03:01:15;;;;;;;;;;;;;;;;;;1048448;28;2768;-55
2023/01/03 03:01:49;;;;;;;;;;;;;;;;;;1047866;28;4009;-49
2023/01/03 03:02:22;;;;;;;;;;;;;;;;;;1051127;28;2455;-52
2023/01/03 03:02:59;;;;;;;;;;;;;;;;;;1043205;28;4375;-54
2023/01/03 03:03:31;;;;;;;;;;;;;;;;;;1046559;28;1727;-50
2023/01/03 03:04:02;;;;;;;;;;;;;;;;;;1045177;28;3793;-52
2023/01/03 03:04:33;;;;;;;;;;;;;;;;;;1045909;28;3128;-57
2023/01/03 03:05:05;;;;;;;;;;;;;;;;;;1047694;28;3696;-53
2023/01/03 03:05:40;;;;;;;;;;;;;;;;;;1048882;28;3787;-56
2023/01/03 03:06:16;;;;;;;;;;;;;;;;;;1051320;28;2055;-50
2023/01/03 03:06:51;;;;;;;;;;;;;;;;;;1046550;28;3940;-49
2023/01/03 03:07:31;;;;;;;;;;;;;;;;;;1049109;28;1725;-50
2023/01/03 03:08:01;;;;;;;;;;;;;;;;;;1047020;28;4395;-54
2023/01/03 03:08:31;;;;;;;;;;;;;;;;;;1047895;28;3430;-52
2023/01/03 03:09:02;;;;;;;;;;;;;;;;;;1048152;28;4207;-53
2023/01/03 03:13:11;;;;;;;;;;;;;;;;;;1048449;28;1815;-54
2023/01/03 03:13:47;;;;;;;;;;;;;;;;;;1046863;28;3761;-49
2023/01/03 03:14:26;;;;;;;;;;;;;;;;;;1048290;28;1698;-55
2023/01/03 03:14:57;;;;;;;;;;;;;;;;;;1050329;28;4007;-52
2023/01/03 03:15:36;;;;;;;;;;;;;;;;;;1049201;28;1578;-54
2023/01/03 03:16:16;;;;;;;;;;;;;;;;;;1049073;28;3818;-51
2023/01/03 03:16:48;;;;;;;;;;;;;;;;;;1050969;28;4396;-52
2023/01/03 03:17:23;;;;;;;;;;;;;;;;;;1051250;28;1823;-53
2023/01/03 03:17:56;;;;;;;;;;;;;;;;;;1047668;28;4353;-53
2023/01/03 03:18:32;;;;;;;;;;;;;;;;;;1047565;28;2987;-52
2023/01/03 03:19:12;;;;;;;;;;;;;;;;;;1048484;28;4073;-51
2023/01/03 03:25:18;;;;;;;;;;;;;;;;;;1039905;28;4044;-54
2023/01/03 03:25:54;;;;;;;;;;;;;;;;;;1040882;28;3967;-51
2023/01/03 03:26:29;;;;;;;;;;;;;;;;;;1040196;28;2664;-52
2023/01/03 03:28:33;;;;;;;;;;;;;;;;;;1041934;28;3959;-52
2023/01/03 03:28:46;;;;;;;;;;;;;;;;;;1041233;28;4451;-52
2023/01/03 03:29:17;;;;;;;;;;;;;;;;;;1043102;28;1956;-54
2023/01/03 03:29:48;;;;;;;;;;;;;;;;;;1038901;28;3889;-52
2023/01/03 03:30:20;;;;;;;;;;;;;;;;;;1039377;28;1993;-53
2023/01/03 03:30:53;;;;;;;;;;;;;;;;;;1041205;28;4195;-54
2023/01/03 03:31:32;;;;;;;;;;;;;;;;;;1041973;28;1635;-54
2023/01/03 03:32:02;;;;;;;;;;;;;;;;;;1041684;28;3757;-51
2023/01/03 03:32:34;;;;;;;;;;;;;;;;;;1042739;28;1989;-51
2023/01/03 03:33:05;;;;;;;;;;;;;;;;;;1042165;28;3726;-51
2023/01/03 03:33:39;;;;;;;;;;;;;;;;;;1038495;28;4401;-53
2023/01/03 03:34:09;;;;;;;;;;;;;;;;;;1044244;28;2824;-53
2023/01/03 03:34:41;;;;;;;;;;;;;;;;;;1041800;28;4378;-53
2023/01/03 03:35:13;;;;;;;;;;;;;;;;;;1042202;28;2038;-50
2023/01/03 03:35:46;;;;;;;;;;;;;;;;;;1041137;28;4040;-53
2023/01/03 03:36:34;;;;;;;;;;;;;;;;;;1037827;28;2756;-50
2023/01/03 03:37:09;;;;;;;;;;;;;;;;;;1041885;28;4009;-55
2023/01/03 03:37:40;;;;;;;;;;;;;;;;;;1037375;28;3789;-53
2023/01/03 03:38:12;;;;;;;;;;;;;;;;;;1034076;28;1871;-54
2023/01/03 03:38:43;;;;;;;;;;;;;;;;;;1036523;28;3819;-53
2023/01/03 03:45:02;;;;;;;;;;;;;;;;;;1038714;28;4167;-49
2023/01/03 03:45:41;;;;;;;;;;;;;;;;;;1042168;28;1960;-53
2023/01/03 03:46:14;;;;;;;;;;;;;;;;;;1039558;28;3851;-55
2023/01/03 03:46:47;;;;;;;;;;;;;;;;;;1038879;28;4407;-50
2023/01/03 03:47:25;;;;;;;;;;;;;;;;;;1038767;28;2016;-52
2023/01/03 03:48:22;;;;;;;;;;;;;;;;;;1037823;28;3785;-54
2023/01/03 03:49:48;;;;;;;;;;;;;;;;;;1039574;28;5366;-49
2023/01/03 03:50:22;;;;;;;;;;;;;;;;;;1040743;28;2458;-54
2023/01/03 03:51:05;;;;;;;;;;;;;;;;;;1039715;28;3813;-51
2023/01/03 03:51:38;;;;;;;;;;;;;;;;;;1038549;28;4215;-54
2023/01/03 03:52:11;;;;;;;;;;;;;;;;;;1040293;28;2737;-54
2023/01/03 03:52:50;;;;;;;;;;;;;;;;;;1039387;28;3928;-52
2023/01/03 03:53:23;;;;;;;;;;;;;;;;;;1038717;28;1682;-51
2023/01/03 03:53:54;;;;;;;;;;;;;;;;;;1042735;28;3953;-50
2023/01/03 03:54:26;;;;;;;;;;;;;;;;;;1040061;28;1953;-52
2023/01/03 03:54:58;;;;;;;;;;;;;;;;;;1039185;28;4394;-52
2023/01/03 03:55:32;;;;;;;;;;;;;;;;;;1039637;28;2580;-49
2023/01/03 03:56:05;;;;;;;;;;;;;;;;;;1042208;28;3954;-50
2023/01/03 03:56:37;;;;;;;;;;;;;;;;;;1038821;28;4404;-52
2023/01/03 03:57:12;;;;;;;;;;;;;;;;;;1042908;28;1684;-52
2023/01/03 03:57:46;;;;;;;;;;;;;;;;;;1041441;28;4108;-54
2023/01/03 03:58:19;;;;;;;;;;;;;;;;;;1040563;28;3110;-53
2023/01/03 03:58:52;;;;;;;;;;;;;;;;;;1038255;28;4233;-49
2023/01/03 03:59:25;;;;;;;;;;;;;;;;;;1042851;28;3087;-53
2023/01/03 03:59:58;;;;;;;;;;;;;;;;;;1039945;28;3896;-53
2023/01/03 04:00:30;;;;;;;;;;;;;;;;;;1042165;28;2759;-52
2023/01/03 04:01:01;;;;;;;;;;;;;;;;;;1042327;28;4269;-53
2023/01/03 04:01:32;;;;;;;;;;;;;;;;;;1042749;28;1675;-52
2023/01/03 04:02:03;;;;;;;;;;;;;;;;;;1040914;28;3811;-52
2023/01/03 04:02:35;;;;;;;;;;;;;;;;;;1037284;28;1676;-51
2023/01/03 04:03:07;;;;;;;;;;;;;;;;;;1035572;28;3722;-52
2023/01/03 04:03:38;;;;;;;;;;;;;;;;;;1040475;28;4020;-51
2023/01/03 04:04:12;;;;;;;;;;;;;;;;;;1039584;28;1776;-53
2023/01/03 04:04:45;;;;;;;;;;;;;;;;;;1041255;28;4202;-55
2023/01/03 04:05:17;;;;;;;;;;;;;;;;;;1040501;28;2481;-51
2023/01/03 04:05:50;;;;;;;;;;;;;;;;;;1038710;28;3945;-53
2023/01/03 04:06:27;;;;;;;;;;;;;;;;;;1038317;28;2896;-53
2023/01/03 04:06:57;;;;;;;;;;;;;;;;;;1039851;28;4025;-51
2023/01/03 04:07:27;;;;;;;;;;;;;;;;;;1040776;28;1703;-51
2023/01/03 04:07:58;;;;;;;;;;;;;;;;;;1038626;28;3983;-53
2023/01/03 04:08:28;;;;;;;;;;;;;;;;;;1038594;28;2242;-55
2023/01/03 04:08:58;;;;;;;;;;;;;;;;;;1038907;28;4009;-52
2023/01/03 04:09:29;;;;;;;;;;;;;;;;;;1040573;28;1732;-50
2023/01/03 04:09:59;;;;;;;;;;;;;;;;;;1039737;28;3946;-51
2023/01/03 04:10:29;;;;;;;;;;;;;;;;;;1042368;28;2062;-49
2023/01/03 04:11:06;;;;;;;;;;;;;;;;;;1042958;28;4458;-51
2023/01/03 04:11:36;;;;;;;;;;;;;;;;;;1042183;28;3934;-54
2023/01/03 04:12:07;;;;;;;;;;;;;;;;;;1041868;28;2803;-54
2023/01/03 04:12:37;;;;;;;;;;;;;;;;;;1040901;28;4041;-54
2023/01/03 04:13:07;;;;;;;;;;;;;;;;;;1039804;28;3163;-55
2023/01/03 04:13:38;;;;;;;;;;;;;;;;;;1034675;28;5048;-56
2023/01/03 04:14:08;;;;;;;;;;;;;;;;;;1039463;28;2428;-49
2023/01/03 04:14:38;;;;;;;;;;;;;;;;;;1041195;28;4225;-54
2023/01/03 04:15:09;;;;;;;;;;;;;;;;;;1040852;28;2660;-55
2023/01/03 04:15:39;;;;;;;;;;;;;;;;;;1041176;28;3775;-50